Weather History for KCQM - November, 2012

Change the Weather History Date:

Friday, November 9, 2012

  Actual Average Record
Temperature  
Mean Temperature 32 °F -  
Max Temperature 35 °F 35 °F 64 °F (2010)
Min Temperature 28 °F 22 °F 14 °F (2014)
Degree Days  
Heating Degree Days 34    
Moisture  
Dew Point 27 °F    
Average Humidity 81    
Maximum Humidity 93    
Minimum Humidity 70    
Precipitation  
Precipitation 0.00 in - - ()
Sea Level Pressure  
Sea Level Pressure 30.14 in    
Wind  
Wind Speed 4 mph (NE)    
Max Wind Speed 10 mph    
Max Gust Speed -    
Visibility 10 miles    
Events      
Averages and records for this station are not official NWS values.
T = Trace of Precipitation, MM = Missing Value Source: NWS Daily Summary

Daily Weather History Graph

Daily Weather History Graph

Search for Another Location

Airport or City:

Trip Planner

Search our weather history database for the weather conditions in past years. The results will help you decide how hot, cold, wet, or windy it might be!

Date:

Astronomy

Nov. 09, 2012 Rise Set
Actual Time 7:08 AM CST 4:40 PM CST
Civil Twilight 6:35 AM CST 5:13 PM CST
Nautical Twilight 5:57 AM CST 5:50 PM CST
Astronomical Twilight 5:21 AM CST 6:26 PM CST
Moon 1:47 AM CST (11/9) 2:11 PM CST (11/9)
Length of Visible Light 10h 38m
Length of Day
9h 32m
Waning Crescent, 23% of the Moon is Illuminated
Nov 9
Waning Crescent
Nov 13
New
Nov 20
First Quarter
Nov 28
Full
Dec 6
Last Quarter

Hourly Weather History & Observations

Time (CST) Temp. Windchill Dew Point Humidity Pressure Visibility Wind Dir Wind Speed Gust Speed Precip Events Conditions
12:16 AM 33.8 °F 30.8 °F 30.2 °F 87% 30.11 in 10.0 mi North 3.5 mph - N/A   Overcast
12:37 AM 33.8 °F - 30.2 °F 87% 30.11 in 10.0 mi Calm Calm - N/A   Overcast
12:57 AM 33.8 °F - 28.4 °F 81% 30.11 in 10.0 mi Calm Calm - N/A   Overcast
1:16 AM 33.8 °F - 28.4 °F 81% 30.11 in 10.0 mi Calm Calm - N/A   Overcast
1:37 AM 33.8 °F 28.6 °F 28.4 °F 81% 30.12 in 10.0 mi NNE 5.8 mph - N/A   Overcast
1:57 AM 33.8 °F - 28.4 °F 81% 30.13 in 10.0 mi Calm Calm - N/A   Overcast
2:16 AM 33.8 °F - 28.4 °F 81% 30.13 in 10.0 mi Calm Calm - N/A   Overcast
2:37 AM 33.8 °F 30.8 °F 28.4 °F 81% 30.14 in 10.0 mi NNE 3.5 mph - N/A   Overcast
2:56 AM 33.8 °F 29.6 °F 28.4 °F 81% 30.14 in 10.0 mi North 4.6 mph - N/A   Overcast
3:16 AM 33.8 °F - 28.4 °F 81% 30.14 in 10.0 mi Calm Calm - N/A   Overcast
3:36 AM 32.0 °F - 28.4 °F 87% 30.14 in 10.0 mi Calm Calm - N/A   Mostly Cloudy
3:56 AM 32.0 °F - 28.4 °F 87% 30.14 in 10.0 mi Calm Calm - N/A   Overcast
4:16 AM 32.0 °F - 28.4 °F 87% 30.15 in 10.0 mi Calm Calm - N/A   Overcast
4:36 AM 33.8 °F 30.8 °F 30.2 °F 87% 30.15 in 10.0 mi North 3.5 mph - N/A   Overcast
4:57 AM 33.8 °F 28.6 °F 30.2 °F 87% 30.15 in 10.0 mi North 5.8 mph - N/A   Overcast
5:16 AM 32.0 °F 27.5 °F 28.4 °F 87% 30.15 in 10.0 mi North 4.6 mph - N/A   Overcast
5:57 AM 32.0 °F 28.7 °F 28.4 °F 87% 30.16 in 10.0 mi North 3.5 mph - N/A   Overcast
6:16 AM 32.0 °F 28.7 °F 28.4 °F 87% 30.16 in 10.0 mi NNE 3.5 mph - N/A   Overcast
6:36 AM 32.0 °F 28.7 °F 28.4 °F 87% 30.15 in 10.0 mi North 3.5 mph - N/A   Overcast
6:57 AM 32.0 °F 27.5 °F 28.4 °F 87% 30.15 in 10.0 mi NE 4.6 mph - N/A   Overcast
7:16 AM 30.2 °F 25.4 °F 28.4 °F 93% 30.15 in 10.0 mi NNE 4.6 mph - N/A   Overcast
7:36 AM 30.2 °F 25.4 °F 28.4 °F 93% 30.16 in 10.0 mi NE 4.6 mph - N/A   Overcast
7:57 AM 30.2 °F 24.3 °F 28.4 °F 93% 30.16 in 10.0 mi NE 5.8 mph - N/A   Overcast
8:16 AM 32.0 °F 28.7 °F 28.4 °F 87% 30.16 in 10.0 mi NE 3.5 mph - N/A   Overcast
8:36 AM 32.0 °F 27.5 °F 26.6 °F 80% 30.16 in 10.0 mi ENE 4.6 mph - N/A   Overcast
8:57 AM 32.0 °F 26.4 °F 26.6 °F 80% 30.16 in 10.0 mi NE 5.8 mph - N/A   Overcast
9:16 AM 32.0 °F 27.5 °F 26.6 °F 80% 30.17 in 10.0 mi ENE 4.6 mph - N/A   Overcast
9:37 AM 33.8 °F 27.7 °F 26.6 °F 75% 30.17 in 10.0 mi NNE 6.9 mph - N/A   Overcast
9:56 AM 33.8 °F 28.6 °F 26.6 °F 75% 30.17 in 10.0 mi ENE 5.8 mph - N/A   Overcast
10:16 AM 32.0 °F 26.4 °F 26.6 °F 80% 30.18 in 10.0 mi East 5.8 mph - N/A   Overcast
10:37 AM 32.0 °F 26.4 °F 26.6 °F 80% 30.18 in 10.0 mi NE 5.8 mph - N/A   Overcast
10:56 AM 32.0 °F 25.6 °F 26.6 °F 80% 30.18 in 10.0 mi NNE 6.9 mph - N/A   Overcast
11:16 AM 32.0 °F 25.6 °F 26.6 °F 80% 30.19 in 10.0 mi NNE 6.9 mph - N/A   Overcast
11:37 AM 33.8 °F 27.7 °F 26.6 °F 75% 30.18 in 10.0 mi NE 6.9 mph - N/A   Overcast
11:57 AM 33.8 °F 26.4 °F 26.6 °F 75% 30.17 in 10.0 mi NNE 9.2 mph - N/A   Mostly Cloudy
12:16 PM 33.8 °F 28.6 °F 26.6 °F 75% 30.17 in 10.0 mi NNE 5.8 mph - N/A   Mostly Cloudy
12:37 PM 33.8 °F 27.7 °F 26.6 °F 75% 30.16 in 10.0 mi NNE 6.9 mph - N/A   Mostly Cloudy
12:57 PM 35.6 °F 29.2 °F 26.6 °F 70% 30.16 in 10.0 mi NNE 8.1 mph - N/A   Scattered Clouds
1:16 PM 35.6 °F 29.9 °F 26.6 °F 70% 30.15 in 10.0 mi East 6.9 mph - N/A   Scattered Clouds
1:37 PM 33.8 °F 28.6 °F 26.6 °F 75% 30.15 in 10.0 mi NNE 5.8 mph - N/A   Mostly Cloudy
1:56 PM 35.6 °F 29.9 °F 26.6 °F 70% 30.14 in 10.0 mi NE 6.9 mph - N/A   Mostly Cloudy
2:17 PM 33.8 °F 28.6 °F 26.6 °F 75% 30.14 in 10.0 mi NE 5.8 mph - N/A   Mostly Cloudy
2:36 PM 33.8 °F 29.6 °F 26.6 °F 75% 30.13 in 10.0 mi ENE 4.6 mph - N/A   Mostly Cloudy
2:56 PM 33.8 °F 29.6 °F 26.6 °F 75% 30.13 in 10.0 mi ENE 4.6 mph - N/A   Mostly Cloudy
3:17 PM 35.6 °F 29.2 °F 26.6 °F 70% 30.13 in 10.0 mi NE 8.1 mph - N/A   Mostly Cloudy
3:36 PM 33.8 °F 28.6 °F 26.6 °F 75% 30.14 in 10.0 mi NNE 5.8 mph - N/A   Mostly Cloudy
3:56 PM 33.8 °F 30.8 °F 24.8 °F 70% 30.14 in 10.0 mi NE 3.5 mph - N/A   Scattered Clouds
4:17 PM 33.8 °F 30.8 °F 24.8 °F 70% 30.14 in 10.0 mi NE 3.5 mph - N/A   Scattered Clouds
4:36 PM 33.8 °F 27.7 °F 24.8 °F 70% 30.13 in 10.0 mi NE 6.9 mph - N/A   Scattered Clouds
4:56 PM 32.0 °F 28.7 °F 24.8 °F 75% 30.14 in 10.0 mi NE 3.5 mph - N/A   Mostly Cloudy
5:17 PM 32.0 °F 26.4 °F 24.8 °F 75% 30.14 in 10.0 mi NNE 5.8 mph - N/A   Overcast
5:36 PM 30.2 °F 24.3 °F 24.8 °F 80% 30.14 in 10.0 mi NNE 5.8 mph - N/A   Overcast
5:56 PM 30.2 °F 24.3 °F 24.8 °F 80% 30.14 in 10.0 mi NE 5.8 mph - N/A   Overcast
6:17 PM 30.2 °F 25.4 °F 24.8 °F 80% 30.14 in 10.0 mi NE 4.6 mph - N/A   Overcast
6:36 PM 30.2 °F 25.4 °F 24.8 °F 80% 30.14 in 10.0 mi NE 4.6 mph - N/A   Overcast
6:56 PM 28.4 °F 23.3 °F 24.8 °F 86% 30.14 in 10.0 mi NE 4.6 mph - N/A   Overcast
7:17 PM 28.4 °F 24.6 °F 24.8 °F 86% 30.14 in 10.0 mi NE 3.5 mph - N/A   Overcast
7:36 PM 28.4 °F 22.2 °F 24.8 °F 86% 30.14 in 10.0 mi NE 5.8 mph - N/A   Scattered Clouds
7:56 PM 28.4 °F 21.2 °F 24.8 °F 86% 30.14 in 10.0 mi ENE 6.9 mph - N/A   Scattered Clouds
8:17 PM 28.4 °F 23.3 °F 24.8 °F 86% 30.13 in 10.0 mi ENE 4.6 mph - N/A   Scattered Clouds
8:36 PM 28.4 °F 23.3 °F 24.8 °F 86% 30.13 in 10.0 mi ENE 4.6 mph - N/A   Scattered Clouds
8:57 PM 28.4 °F 23.3 °F 24.8 °F 86% 30.13 in 10.0 mi East 4.6 mph - N/A   Overcast
9:17 PM 28.4 °F 22.2 °F 24.8 °F 86% 30.13 in 10.0 mi ENE 5.8 mph - N/A   Overcast
9:36 PM 30.2 °F 25.4 °F 24.8 °F 80% 30.13 in 10.0 mi ENE 4.6 mph - N/A   Overcast
9:57 PM 30.2 °F 24.3 °F 26.6 °F 86% 30.12 in 10.0 mi East 5.8 mph - N/A   Overcast
10:17 PM 30.2 °F 24.3 °F 24.8 °F 80% 30.13 in 10.0 mi East 5.8 mph - N/A   Overcast
10:36 PM 30.2 °F 21.3 °F 24.8 °F 80% 30.12 in 10.0 mi East 10.4 mph - N/A   Overcast
10:57 PM 30.2 °F 22.6 °F 24.8 °F 80% 30.11 in 10.0 mi East 8.1 mph - N/A   Overcast
11:17 PM 30.2 °F 21.9 °F 24.8 °F 80% 30.11 in 10.0 mi East 9.2 mph - N/A   Overcast
11:36 PM 30.2 °F 21.9 °F 24.8 °F 80% 30.10 in 10.0 mi East 9.2 mph - N/A   Overcast
11:57 PM 30.2 °F 25.4 °F 24.8 °F 80% 30.11 in 10.0 mi East 4.6 mph - N/A   Overcast